Time;durP1;ratioP1;P1;durP2;ratioP2;P2;SDS_P1;SDS_P2;PMS_P1;PMS_P2;Temp;Humidity;BMP_temperature;BMP_pressure;BME280_temperature;BME280_humidity;BME280_pressure;Samples;Min_cycle;Max_cycle;Signal;HPM_P1;HPM_P2
2023/05/27 00:01:35;;;;;;;11.33;4.70;;;;;;;11.41;73.05;102176.59;5003042;28;20597;-69
2023/05/27 00:04:01;;;;;;;15.33;4.80;;;;;;;11.40;73.16;102182.88;5005922;28;20211;-67
2023/05/27 00:06:28;;;;;;;11.93;4.50;;;;;;;11.38;73.23;102177.59;5002542;28;20215;-67
2023/05/27 00:08:54;;;;;;;9.50;4.50;;;;;;;11.37;73.25;102175.00;5005886;28;20221;-69
2023/05/27 00:11:21;;;;;;;17.63;5.43;;;;;;;11.35;73.38;102176.84;5001489;28;20244;-69
2023/05/27 00:13:47;;;;;;;15.90;5.37;;;;;;;11.33;73.36;102174.25;5003112;28;20205;-69
2023/05/27 00:16:16;;;;;;;13.17;4.73;;;;;;;11.33;73.45;102178.72;4999156;28;20208;-67
2023/05/27 00:18:43;;;;;;;13.30;5.23;;;;;;;11.31;73.52;102185.91;5005182;28;20292;-67
2023/05/27 00:21:09;;;;;;;9.67;4.10;;;;;;;11.27;73.71;102179.84;5003467;28;20311;-67
2023/05/27 00:23:36;;;;;;;18.80;5.63;;;;;;;11.25;73.81;102175.50;5003051;28;20233;-67
2023/05/27 00:26:02;;;;;;;10.30;5.13;;;;;;;11.22;73.83;102168.50;5007173;28;20314;-67
2023/05/27 00:28:31;;;;;;;11.77;4.10;;;;;;;11.18;73.71;102166.03;5004295;28;20226;-66
2023/05/27 00:30:57;;;;;;;9.23;4.33;;;;;;;11.14;73.74;102178.59;5001584;28;20607;-67
2023/05/27 00:33:25;;;;;;;11.00;4.50;;;;;;;11.09;73.94;102176.16;5003374;28;20234;-68
2023/05/27 00:35:51;;;;;;;13.43;4.50;;;;;;;11.05;74.27;102174.53;5002803;28;20203;-69
2023/05/27 00:38:18;;;;;;;8.23;4.53;;;;;;;11.02;74.29;102177.31;5000263;28;20210;-67
2023/05/27 00:40:45;;;;;;;12.60;4.87;;;;;;;10.97;74.27;102176.63;5005845;28;20203;-67
2023/05/27 00:43:11;;;;;;;18.43;5.77;;;;;;;10.91;73.94;102176.91;5002809;28;20227;-67
2023/05/27 00:45:38;;;;;;;9.00;4.23;;;;;;;10.84;73.91;102180.75;5003039;28;20220;-66
2023/05/27 00:48:05;;;;;;;9.47;3.93;;;;;;;10.74;73.57;102174.91;5002225;28;20231;-68
2023/05/27 00:50:33;;;;;;;14.17;4.10;;;;;;;10.68;73.75;102184.94;4999766;28;20663;-69
2023/05/27 00:52:59;;;;;;;13.17;4.43;;;;;;;10.62;74.32;102174.50;5003850;28;20231;-67
2023/05/27 00:55:26;;;;;;;12.77;4.57;;;;;;;10.56;73.95;102175.66;5004342;28;20202;-67
2023/05/27 00:57:53;;;;;;;8.17;4.30;;;;;;;10.49;73.74;102176.78;5006986;28;20206;-66
2023/05/27 01:00:20;;;;;;;11.70;4.83;;;;;;;10.39;73.52;102178.94;5005751;28;20294;-67
2023/05/27 01:02:47;;;;;;;10.70;4.30;;;;;;;10.33;74.32;102173.84;5003086;28;20242;-67
2023/05/27 01:05:16;;;;;;;11.67;3.77;;;;;;;10.27;74.47;102178.53;5007067;28;20199;-67
2023/05/27 01:07:54;;;;;;;9.80;4.23;;;;;;;10.19;74.38;102178.84;5004781;28;20223;-68
2023/05/27 01:10:27;;;;;;;11.47;4.97;;;;;;;10.10;73.94;102169.34;5009598;28;20214;-67
2023/05/27 01:13:00;;;;;;;10.77;4.53;;;;;;;10.00;74.35;102172.44;5008155;28;20233;-66
2023/05/27 01:15:27;;;;;;;9.03;3.93;;;;;;;9.93;74.52;102184.22;5003216;28;20199;-67
2023/05/27 01:17:56;;;;;;;12.70;4.10;;;;;;;9.82;74.42;102176.63;5007049;28;20689;-67
2023/05/27 01:20:24;;;;;;;7.77;4.37;;;;;;;9.73;74.52;102176.94;5011549;28;20210;-67
2023/05/27 01:22:52;;;;;;;10.33;4.13;;;;;;;9.64;74.92;102177.28;5004851;28;20227;-68
2023/05/27 01:25:19;;;;;;;7.53;3.80;;;;;;;9.58;76.35;102173.03;5009091;28;20616;-68
2023/05/27 01:27:46;;;;;;;9.07;4.00;;;;;;;9.52;75.91;102170.56;5007355;28;20829;-67
2023/05/27 01:30:13;;;;;;;10.30;4.60;;;;;;;9.46;76.28;102168.16;5008864;28;20203;-67
2023/05/27 01:32:43;;;;;;;9.83;4.40;;;;;;;9.43;77.02;102162.06;5006212;28;20234;-67
2023/05/27 01:35:18;;;;;;;12.03;4.07;;;;;;;9.37;77.34;102168.44;5006305;28;20215;-68
2023/05/27 01:37:46;;;;;;;12.70;5.17;;;;;;;9.35;77.94;102167.63;5008058;28;20198;-68
2023/05/27 01:40:15;;;;;;;9.53;4.03;;;;;;;9.33;77.70;102161.50;5009180;28;20222;-69
2023/05/27 01:42:44;;;;;;;10.73;3.90;;;;;;;9.30;77.69;102165.16;5007071;28;20261;-69
2023/05/27 01:45:12;;;;;;;11.90;5.10;;;;;;;9.27;77.82;102159.06;5009665;28;20238;-67
2023/05/27 01:47:38;;;;;;;9.93;4.90;;;;;;;9.22;77.37;102159.22;5008499;28;20230;-70
2023/05/27 01:50:06;;;;;;;12.13;4.10;;;;;;;9.18;78.35;102164.66;5008095;28;20208;-66
2023/05/27 01:52:33;;;;;;;8.97;4.17;;;;;;;9.15;78.35;102162.09;5007258;28;20222;-66
2023/05/27 01:54:59;;;;;;;8.17;5.00;;;;;;;9.10;78.11;102167.59;5004567;28;20207;-66
2023/05/27 01:57:27;;;;;;;9.97;4.60;;;;;;;9.08;78.29;102164.13;5009674;28;20694;-66
2023/05/27 01:59:53;;;;;;;9.90;4.43;;;;;;;9.04;78.46;102166.00;5006448;28;20203;-66
2023/05/27 02:02:20;;;;;;;11.67;5.00;;;;;;;8.99;78.15;102159.97;5009191;28;20309;-66
2023/05/27 02:04:47;;;;;;;10.53;4.80;;;;;;;8.95;79.05;102160.13;5006059;28;20251;-66
2023/05/27 02:07:13;;;;;;;8.43;4.20;;;;;;;8.92;78.79;102150.47;5009809;28;20239;-67
2023/05/27 02:09:40;;;;;;;9.53;4.50;;;;;;;8.89;78.92;102150.56;5009926;28;20238;-66
2023/05/27 02:12:07;;;;;;;7.80;4.23;;;;;;;8.87;78.85;102156.84;5005755;28;20224;-66
2023/05/27 02:14:38;;;;;;;8.93;4.53;;;;;;;8.80;78.64;102157.94;5026797;22;20199;-73
2023/05/27 02:17:05;;;;;;;12.67;4.47;;;;;;;8.76;79.20;102151.88;5068914;28;20201;-74
2023/05/27 02:19:31;;;;;;;10.63;5.03;;;;;;;8.70;79.41;102146.75;5065417;28;20212;-73
2023/05/27 02:21:58;;;;;;;10.20;4.63;;;;;;;8.63;79.19;102147.84;5062455;28;20210;-73
2023/05/27 02:24:24;;;;;;;9.93;4.67;;;;;;;8.57;79.38;102145.41;5061821;28;20214;-72
2023/05/27 02:26:51;;;;;;;11.50;4.80;;;;;;;8.54;80.75;102154.34;5044683;28;20219;-73
2023/05/27 02:29:17;;;;;;;6.07;3.83;;;;;;;8.54;79.99;102153.47;5046316;28;20784;-73
2023/05/27 02:31:45;;;;;;;10.70;5.67;;;;;;;8.47;79.70;102149.25;5046921;28;20816;-75
2023/05/27 02:34:11;;;;;;;9.63;4.00;;;;;;;8.41;80.56;102146.81;5050035;28;20201;-72
2023/05/27 02:36:38;;;;;;;6.23;4.00;;;;;;;8.34;81.26;102154.94;5047876;28;20209;-73
2023/05/27 02:39:05;;;;;;;7.57;4.23;;;;;;;8.32;81.81;102147.94;5045402;28;20198;-74
2023/05/27 02:41:31;;;;;;;11.50;4.27;;;;;;;8.31;82.01;102155.00;5051686;28;20205;-73
2023/05/27 02:43:58;;;;;;;10.23;4.23;;;;;;;8.30;82.23;102150.59;5044216;28;20206;-73
2023/05/27 02:46:24;;;;;;;6.87;4.63;;;;;;;8.31;81.73;102151.47;5047502;28;20233;-73
2023/05/27 02:48:52;;;;;;;9.63;5.00;;;;;;;8.30;81.93;102149.75;5046627;28;20232;-74
2023/05/27 02:51:18;;;;;;;12.37;4.80;;;;;;;8.28;82.20;102151.56;5043461;28;20289;-73
2023/05/27 02:53:45;;;;;;;10.90;4.33;;;;;;;8.26;82.44;102150.75;5044320;28;20225;-73
2023/05/27 02:56:12;;;;;;;11.53;4.73;;;;;;;8.22;81.74;102141.16;5046508;28;20222;-73
2023/05/27 02:58:38;;;;;;;9.03;4.20;;;;;;;8.17;82.37;102140.41;5047276;28;20226;-73
2023/05/27 03:01:05;;;;;;;10.77;4.37;;;;;;;8.12;82.32;102145.84;5043060;28;20234;-73
2023/05/27 03:03:31;;;;;;;10.40;4.30;;;;;;;8.08;82.54;102140.66;5048296;28;20217;-74
2023/05/27 03:05:59;;;;;;;7.43;4.13;;;;;;;8.05;82.47;102140.78;5047776;28;20363;-73
2023/05/27 03:08:25;;;;;;;10.87;4.33;;;;;;;8.02;82.44;102144.38;5041398;28;20728;-73
2023/05/27 03:10:52;;;;;;;10.13;4.87;;;;;;;7.98;82.48;102145.38;5043839;28;20212;-73
2023/05/27 03:13:18;;;;;;;8.37;4.00;;;;;;;7.95;83.29;102148.13;5047115;28;20210;-73
2023/05/27 03:15:45;;;;;;;10.77;4.13;;;;;;;7.90;82.96;102148.25;5047003;28;20229;-73
2023/05/27 03:18:11;;;;;;;13.83;4.43;;;;;;;7.88;83.54;102151.88;5046345;28;20212;-73
2023/05/27 03:20:38;;;;;;;9.90;4.00;;;;;;;7.86;83.69;102154.56;5045586;28;20210;-73
2023/05/27 03:23:05;;;;;;;11.93;4.93;;;;;;;7.85;84.18;102152.84;5045289;28;20212;-74
2023/05/27 03:25:33;;;;;;;10.17;4.63;;;;;;;7.84;84.48;102160.81;5047143;28;20225;-73
2023/05/27 03:28:00;;;;;;;15.97;4.80;;;;;;;7.84;84.44;102155.53;5046079;28;20202;-72
2023/05/27 03:30:26;;;;;;;9.77;4.10;;;;;;;7.85;84.98;102151.97;5042140;28;20210;-72
2023/05/27 03:32:53;;;;;;;10.60;4.80;;;;;;;7.87;84.37;102147.47;5043076;28;20229;-75
2023/05/27 03:35:19;;;;;;;10.27;4.53;;;;;;;7.90;84.64;102150.91;5046843;28;20241;-73
2023/05/27 03:37:46;;;;;;;8.33;4.63;;;;;;;7.90;84.45;102155.31;5048007;28;20209;-73
2023/05/27 03:40:14;;;;;;;10.77;4.43;;;;;;;7.90;84.68;102152.69;5046901;28;20260;-73
2023/05/27 03:42:40;;;;;;;8.27;4.50;;;;;;;7.88;84.64;102158.03;5041896;28;20701;-72
2023/05/27 03:45:08;;;;;;;12.37;5.50;;;;;;;7.90;85.09;102160.63;5047672;28;20232;-72
2023/05/27 03:47:37;;;;;;;10.40;4.87;;;;;;;7.91;84.95;102157.94;5047501;28;20244;-72
2023/05/27 03:50:04;;;;;;;13.60;4.83;;;;;;;7.95;85.23;102164.03;5037187;28;20717;-73
2023/05/27 03:52:30;;;;;;;10.63;4.93;;;;;;;7.98;86.03;102156.00;5044238;28;20217;-71
2023/05/27 03:54:57;;;;;;;12.23;5.03;;;;;;;8.00;85.03;102155.03;5047689;28;20682;-72
2023/05/27 03:57:24;;;;;;;7.80;4.07;;;;;;;7.98;84.91;102148.91;5047768;28;20612;-70
2023/05/27 03:59:51;;;;;;;9.53;4.57;;;;;;;7.96;84.59;102139.25;5042473;28;20673;-72
2023/05/27 04:02:17;;;;;;;11.27;4.20;;;;;;;7.91;84.43;102131.41;5045206;28;20205;-71
2023/05/27 04:04:44;;;;;;;9.73;4.10;;;;;;;7.88;84.23;102141.28;5044042;28;20233;-72
2023/05/27 04:07:12;;;;;;;8.23;4.40;;;;;;;7.85;84.73;102136.03;5044327;28;20220;-73
2023/05/27 04:09:39;;;;;;;8.77;3.83;;;;;;;7.81;84.05;102123.78;5040386;28;20229;-72
2023/05/27 04:12:07;;;;;;;10.63;4.10;;;;;;;7.79;83.91;102136.22;5044259;28;20213;-72
2023/05/27 04:14:35;;;;;;;9.17;4.43;;;;;;;7.74;84.73;102123.06;5043698;28;20254;-72
2023/05/27 04:17:01;;;;;;;11.43;4.90;;;;;;;7.73;84.82;102129.28;5046022;28;20216;-71
2023/05/27 04:19:28;;;;;;;9.47;4.87;;;;;;;7.73;85.12;102125.75;5042571;28;20240;-70
2023/05/27 04:21:54;;;;;;;9.20;4.80;;;;;;;7.74;85.28;102124.84;5039540;28;20204;-72
2023/05/27 04:24:20;;;;;;;14.30;4.60;;;;;;;7.75;85.82;102119.50;5046315;28;20209;-72
2023/05/27 04:26:47;;;;;;;11.50;4.50;;;;;;;7.78;86.31;102129.16;5047965;28;20212;-72
2023/05/27 04:29:15;;;;;;;11.73;5.37;;;;;;;7.81;86.37;102126.44;5047024;28;20356;-72
2023/05/27 04:31:44;;;;;;;11.50;5.00;;;;;;;7.82;86.64;102129.03;5042662;28;20309;-73
2023/05/27 04:34:11;;;;;;;10.83;5.20;;;;;;;7.82;86.52;102126.38;5038300;28;20216;-70
2023/05/27 04:36:37;;;;;;;9.03;5.20;;;;;;;7.80;87.26;102117.59;5042747;28;20205;-72
2023/05/27 04:39:04;;;;;;;12.57;5.80;;;;;;;7.82;87.35;102125.50;5042070;28;20209;-72
2023/05/27 04:41:32;;;;;;;10.83;4.77;;;;;;;7.84;87.99;102119.25;5039123;28;20217;-72
2023/05/27 04:44:00;;;;;;;9.10;4.77;;;;;;;7.86;87.88;102125.41;5041299;28;20605;-72
2023/05/27 04:46:27;;;;;;;9.90;4.90;;;;;;;7.86;88.11;102112.13;5039948;28;20320;-72
2023/05/27 04:48:55;;;;;;;12.00;5.60;;;;;;;7.90;88.25;102120.84;5041407;28;20245;-72
2023/05/27 04:51:22;;;;;;;11.37;5.13;;;;;;;7.93;88.28;102120.75;5043659;28;20306;-71
2023/05/27 04:53:49;;;;;;;12.47;5.33;;;;;;;7.93;88.89;102121.63;5044507;28;20220;-71
2023/05/27 04:56:17;;;;;;;13.67;5.47;;;;;;;7.98;88.95;102121.50;5042517;28;20236;-72
2023/05/27 04:58:46;;;;;;;11.50;5.27;;;;;;;8.02;89.32;102121.38;5045431;28;20214;-72
2023/05/27 05:01:17;;;;;;;12.03;5.50;;;;;;;8.08;89.64;102116.78;5043467;28;20209;-72
2023/05/27 05:03:51;;;;;;;12.03;5.37;;;;;;;8.13;90.07;102121.06;5043295;28;20240;-72
2023/05/27 05:06:20;;;;;;;15.87;5.80;;;;;;;8.20;91.12;102127.06;5043643;28;20305;-72
2023/05/27 05:08:47;;;;;;;9.60;5.47;;;;;;;8.24;90.89;102124.25;5045870;28;20230;-72
2023/05/27 05:11:14;;;;;;;10.57;6.13;;;;;;;8.29;91.52;102135.59;5040021;28;20271;-74
2023/05/27 05:13:40;;;;;;;11.37;5.57;;;;;;;8.36;92.44;102141.63;5043688;28;20747;-71
2023/05/27 05:16:07;;;;;;;14.43;6.67;;;;;;;8.45;93.15;102138.69;5042944;28;20229;-73
2023/05/27 05:18:33;;;;;;;17.43;6.37;;;;;;;8.55;93.74;102148.13;5042681;28;20205;-72
2023/05/27 05:21:00;;;;;;;12.60;6.83;;;;;;;8.64;94.37;102152.25;5044373;28;20209;-73
2023/05/27 05:23:28;;;;;;;18.50;7.20;;;;;;;8.73;94.86;102154.63;5042354;28;20214;-73
2023/05/27 05:25:58;;;;;;;11.80;5.60;;;;;;;8.83;95.37;102164.03;5038486;28;20233;-72
2023/05/27 05:28:24;;;;;;;12.83;6.17;;;;;;;8.92;95.09;102157.56;5045849;28;20898;-72
2023/05/27 05:30:51;;;;;;;16.00;6.07;;;;;;;9.02;95.04;102167.84;5041653;28;20221;-74
2023/05/27 05:33:17;;;;;;;15.00;5.97;;;;;;;9.11;95.33;102157.84;5041937;28;20216;-72
2023/05/27 05:35:44;;;;;;;14.93;5.73;;;;;;;9.21;95.69;102153.94;5043279;28;20230;-72
2023/05/27 05:38:10;;;;;;;14.47;6.00;;;;;;;9.28;95.94;102156.34;5041820;28;20202;-73
2023/05/27 05:40:38;;;;;;;19.20;7.00;;;;;;;9.36;95.71;102164.06;5042054;28;20202;-72
2023/05/27 05:43:04;;;;;;;16.60;6.63;;;;;;;9.44;95.76;102148.72;5044102;28;20209;-72
2023/05/27 05:45:31;;;;;;;15.97;5.73;;;;;;;9.53;95.76;102147.50;5045267;28;20229;-72
2023/05/27 05:47:58;;;;;;;13.93;5.90;;;;;;;9.63;95.74;102149.81;5039632;28;20241;-72
2023/05/27 05:50:24;;;;;;;19.90;6.47;;;;;;;9.74;95.91;102155.59;5043803;28;20993;-73
2023/05/27 05:52:51;;;;;;;14.97;6.10;;;;;;;9.90;95.98;102144.41;5044770;28;20218;-74
2023/05/27 05:55:17;;;;;;;14.83;5.93;;;;;;;10.04;95.46;102152.72;5049994;28;20225;-73
2023/05/27 05:57:45;;;;;;;13.70;5.73;;;;;;;10.19;95.31;102160.22;5049648;28;20220;-75
2023/05/27 06:00:13;;;;;;;10.97;6.20;;;;;;;10.32;94.56;102147.28;5046326;28;20205;-73
2023/05/27 06:02:40;;;;;;;16.93;6.40;;;;;;;10.45;94.08;102135.22;5047814;28;20201;-73
2023/05/27 06:05:07;;;;;;;13.70;6.33;;;;;;;10.58;93.49;102144.44;5050133;28;21232;-73
2023/05/27 06:07:34;;;;;;;15.00;6.33;;;;;;;10.72;92.94;102142.13;5048509;28;20205;-73
2023/05/27 06:10:00;;;;;;;18.40;7.07;;;;;;;10.83;91.84;102136.34;5049157;28;20222;-73
2023/05/27 06:12:27;;;;;;;11.33;5.73;;;;;;;10.98;91.26;102140.19;5046626;28;20372;-74
2023/05/27 06:14:54;;;;;;;18.83;7.07;;;;;;;11.13;90.59;102143.06;5043558;28;20236;-74
2023/05/27 06:17:21;;;;;;;12.90;5.73;;;;;;;11.24;89.60;102147.97;5046267;28;20409;-73
2023/05/27 06:19:47;;;;;;;16.33;7.03;;;;;;;11.31;88.70;102141.44;5043803;28;20201;-73
2023/05/27 06:22:14;;;;;;;16.60;7.13;;;;;;;11.38;87.62;102152.72;5045530;28;20199;-74
2023/05/27 06:24:41;;;;;;;17.37;6.40;;;;;;;11.49;87.45;102153.09;5046736;28;20657;-73
2023/05/27 06:27:07;;;;;;;13.87;6.97;;;;;;;11.61;87.11;102141.94;5047007;28;20601;-73
2023/05/27 06:29:34;;;;;;;13.40;5.87;;;;;;;11.73;86.82;102138.69;5047431;28;20242;-74
2023/05/27 06:32:02;;;;;;;13.07;6.97;;;;;;;11.86;85.80;102146.19;5048391;28;20643;-73
2023/05/27 06:34:29;;;;;;;15.53;6.83;;;;;;;11.96;84.86;102142.19;5044432;28;20248;-73
2023/05/27 06:36:55;;;;;;;14.97;6.50;;;;;;;12.06;84.15;102140.81;5050160;28;20258;-73
2023/05/27 06:39:22;;;;;;;12.67;7.30;;;;;;;12.17;83.82;102138.53;5046926;28;20224;-73
2023/05/27 06:41:48;;;;;;;13.80;5.97;;;;;;;12.29;83.08;102140.63;5045191;28;20232;-73
2023/05/27 06:44:15;;;;;;;11.27;5.87;;;;;;;12.39;81.98;102131.22;5046262;28;20217;-73
2023/05/27 06:46:41;;;;;;;13.87;6.90;;;;;;;12.49;81.36;102124.53;5045100;28;20206;-73
2023/05/27 06:49:09;;;;;;;17.80;6.63;;;;;;;12.64;81.58;102130.06;5049423;28;20232;-74
2023/05/27 06:51:36;;;;;;;13.80;6.63;;;;;;;12.77;80.08;102131.19;5044202;28;20228;-74
2023/05/27 06:54:02;;;;;;;12.87;6.50;;;;;;;12.88;79.53;102136.91;5046296;28;20373;-74
2023/05/27 06:56:28;;;;;;;16.47;6.73;;;;;;;12.99;79.19;102134.53;5047693;28;20225;-74
2023/05/27 06:58:55;;;;;;;14.80;6.07;;;;;;;13.12;78.80;102126.75;5045670;28;20232;-73
2023/05/27 07:01:21;;;;;;;13.73;7.40;;;;;;;13.28;78.70;102132.22;5045681;28;20222;-75
2023/05/27 07:03:48;;;;;;;13.90;7.00;;;;;;;13.45;77.84;102129.53;5048951;28;20213;-74
2023/05/27 07:06:16;;;;;;;17.40;6.83;;;;;;;13.57;76.29;102131.59;5046904;28;20225;-74
2023/05/27 07:08:42;;;;;;;17.57;7.00;;;;;;;13.66;74.85;102122.22;5048251;28;20269;-73
2023/05/27 07:11:08;;;;;;;11.93;6.10;;;;;;;13.77;74.48;102128.75;5046699;28;20225;-73
2023/05/27 07:13:35;;;;;;;14.37;6.23;;;;;;;13.90;73.77;102135.16;5049096;28;20213;-72
2023/05/27 07:16:01;;;;;;;14.50;6.33;;;;;;;14.01;73.39;102123.88;5046722;28;20233;-73
2023/05/27 07:18:28;;;;;;;17.07;6.30;;;;;;;14.15;73.12;102120.47;5048976;28;20217;-74
2023/05/27 07:20:54;;;;;;;14.87;5.80;;;;;;;14.31;72.61;102123.16;5048910;28;20204;-74
2023/05/27 07:23:22;;;;;;;16.93;6.23;;;;;;;14.44;71.70;102117.03;5047407;28;20220;-75
2023/05/27 07:25:48;;;;;;;12.93;6.03;;;;;;;14.58;71.15;102129.66;5044986;28;20224;-74
2023/05/27 07:28:16;;;;;;;16.53;6.17;;;;;;;14.71;69.87;102119.09;5044622;28;20218;-75
2023/05/27 07:30:43;;;;;;;16.50;6.87;;;;;;;14.77;68.72;102118.75;5044931;28;20671;-75
2023/05/27 07:33:09;;;;;;;12.17;6.00;;;;;;;14.83;68.79;102105.88;5042652;28;20209;-76
2023/05/27 07:35:36;;;;;;;11.13;5.67;;;;;;;14.97;68.52;102105.06;5047303;28;20232;-74
2023/05/27 07:38:02;;;;;;;12.87;4.90;;;;;;;15.13;67.50;102100.50;5046052;28;20236;-75
2023/05/27 07:40:30;;;;;;;17.00;7.13;;;;;;;15.24;66.79;102100.72;5044681;28;20237;-74
2023/05/27 07:42:57;;;;;;;10.17;4.93;;;;;;;15.37;66.44;102105.38;5042001;28;20214;-74
2023/05/27 07:45:23;;;;;;;12.27;6.00;;;;;;;15.48;65.43;102097.53;5044612;28;20234;-74
2023/05/27 07:47:50;;;;;;;13.63;5.27;;;;;;;15.59;64.94;102097.75;5046938;28;20720;-74
2023/05/27 07:50:16;;;;;;;13.37;5.43;;;;;;;15.69;63.81;102104.28;5042273;28;20231;-75
2023/05/27 07:52:43;;;;;;;15.53;5.27;;;;;;;15.79;63.11;102107.25;5047716;28;20711;-74
2023/05/27 07:55:09;;;;;;;12.00;5.00;;;;;;;15.90;62.82;102091.34;5044956;28;20726;-74
2023/05/27 07:57:37;;;;;;;13.57;5.40;;;;;;;16.03;62.10;102091.44;5044258;28;20209;-76
2023/05/27 08:00:05;;;;;;;13.07;5.00;;;;;;;16.12;61.49;102088.19;5045423;28;20215;-75
2023/05/27 08:02:31;;;;;;;13.03;5.10;;;;;;;16.20;61.07;102088.53;5046510;28;20213;-74
2023/05/27 08:04:58;;;;;;;12.73;5.07;;;;;;;16.29;60.33;102083.44;5039254;28;20231;-74
2023/05/27 08:07:24;;;;;;;14.73;5.70;;;;;;;16.35;60.05;102076.78;5047171;28;20624;-72
2023/05/27 08:09:51;;;;;;;13.97;5.30;;;;;;;16.42;59.69;102077.25;5045839;28;20241;-75
2023/05/27 08:12:17;;;;;;;13.00;4.13;;;;;;;16.53;59.45;102072.03;5043556;28;20211;-74
2023/05/27 08:14:45;;;;;;;12.40;4.80;;;;;;;16.61;58.47;102072.41;5043542;28;20252;-73
2023/05/27 08:17:12;;;;;;;8.63;4.53;;;;;;;16.66;57.79;102064.91;5042714;28;20202;-74
2023/05/27 08:19:38;;;;;;;7.33;3.67;;;;;;;16.71;57.75;102062.78;5042287;28;20215;-74
2023/05/27 08:22:08;;;;;;;9.70;4.10;;;;;;;16.74;57.25;102062.59;5046696;28;20215;-74
2023/05/27 08:24:34;;;;;;;14.10;5.00;;;;;;;16.84;58.36;102057.47;5045854;28;20251;-72
2023/05/27 08:27:02;;;;;;;11.33;4.27;;;;;;;16.98;58.40;102052.00;5044009;28;20204;-75
2023/05/27 08:29:30;;;;;;;11.20;4.47;;;;;;;17.11;57.96;102047.50;5037156;28;20208;-75
2023/05/27 08:31:58;;;;;;;12.23;4.60;;;;;;;17.25;57.35;102041.16;5044905;28;20252;-72
2023/05/27 08:34:25;;;;;;;9.27;4.60;;;;;;;17.31;56.74;102033.53;5042402;28;20710;-74
2023/05/27 08:36:52;;;;;;;13.50;4.50;;;;;;;17.33;55.61;102034.28;5045202;28;20212;-74
2023/05/27 08:39:18;;;;;;;11.17;4.63;;;;;;;17.40;56.30;102026.63;5041220;28;20213;-72
2023/05/27 08:41:45;;;;;;;9.97;4.30;;;;;;;17.50;55.76;102026.84;5037613;28;20227;-76
2023/05/27 08:44:12;;;;;;;12.73;4.60;;;;;;;17.59;55.53;102029.75;5042215;28;20214;-73
2023/05/27 08:46:38;;;;;;;10.70;4.40;;;;;;;17.71;55.11;102022.66;5047931;28;20228;-73
2023/05/27 08:49:08;;;;;;;10.27;3.80;;;;;;;17.83;54.43;102026.31;5044825;28;20209;-75
2023/05/27 08:51:39;;;;;;;9.67;3.13;;;;;;;17.91;53.05;102023.94;5042783;28;20331;-74
2023/05/27 08:54:05;;;;;;;9.57;3.73;;;;;;;17.97;52.88;102020.78;5048721;28;20230;-75
2023/05/27 08:56:33;;;;;;;10.77;4.77;;;;;;;18.02;52.86;102024.00;5039032;28;20763;-73
2023/05/27 08:59:00;;;;;;;12.73;4.63;;;;;;;18.08;52.99;102020.88;5042577;28;20208;-74
2023/05/27 09:01:28;;;;;;;13.37;4.73;;;;;;;18.13;52.51;102017.81;5043663;28;20203;-74
2023/05/27 09:03:55;;;;;;;9.40;4.63;;;;;;;18.19;53.48;102023.63;5044678;28;20234;-75
2023/05/27 09:06:23;;;;;;;8.73;3.00;;;;;;;18.31;52.76;102013.75;5044679;28;20241;-75
2023/05/27 09:08:50;;;;;;;8.67;4.00;;;;;;;18.37;51.38;102018.72;5040105;28;20211;-74
2023/05/27 09:11:21;;;;;;;8.70;3.90;;;;;;;18.45;51.86;102013.59;5044968;28;20253;-73
2023/05/27 09:13:48;;;;;;;12.40;4.20;;;;;;;18.52;51.43;102009.47;5046646;28;20208;-75
2023/05/27 09:16:14;;;;;;;8.70;4.20;;;;;;;18.57;50.45;102004.59;5039206;28;20259;-76
2023/05/27 09:18:42;;;;;;;11.33;4.83;;;;;;;18.59;50.79;102010.75;5041541;28;20206;-74
2023/05/27 09:21:08;;;;;;;11.73;5.17;;;;;;;18.64;51.04;102007.69;5039580;28;20207;-75
2023/05/27 09:23:39;;;;;;;14.27;5.23;;;;;;;18.70;51.36;102000.00;5041977;28;20220;-73
2023/05/27 09:26:08;;;;;;;10.40;5.10;;;;;;;18.78;50.67;102002.13;5044392;28;20251;-75
2023/05/27 09:28:36;;;;;;;10.27;4.77;;;;;;;18.80;50.96;102000.19;5046200;28;20219;-73
2023/05/27 09:31:06;;;;;;;12.33;5.30;;;;;;;18.87;50.49;101998.72;5039936;28;20231;-74
2023/05/27 09:33:34;;;;;;;14.33;5.57;;;;;;;18.94;50.40;102005.38;5040487;28;20304;-72
2023/05/27 09:36:01;;;;;;;15.40;6.13;;;;;;;19.02;50.23;102002.06;5046152;28;20229;-75
2023/05/27 09:38:29;;;;;;;10.50;4.87;;;;;;;19.10;50.07;101996.09;5045851;28;20211;-72
2023/05/27 09:40:57;;;;;;;11.17;5.20;;;;;;;19.19;50.08;102000.75;5053876;28;20261;-73
2023/05/27 09:43:25;;;;;;;12.30;5.20;;;;;;;19.32;49.63;101998.81;5040562;28;20215;-72
2023/05/27 09:45:52;;;;;;;13.50;5.30;;;;;;;19.32;49.22;101996.13;5041012;28;20227;-71
2023/05/27 09:48:20;;;;;;;9.37;4.90;;;;;;;19.36;49.13;101997.59;5045662;28;20223;-75
2023/05/27 09:50:47;;;;;;;13.07;4.70;;;;;;;19.41;48.97;101987.28;5049061;28;20537;-72
2023/05/27 09:53:14;;;;;;;9.00;4.43;;;;;;;19.46;48.53;101990.50;5045367;28;20218;-70
2023/05/27 09:55:42;;;;;;;12.17;4.80;;;;;;;19.54;48.48;101987.19;5042361;28;20226;-74
2023/05/27 09:58:10;;;;;;;10.60;4.40;;;;;;;19.63;48.38;101981.06;5044072;28;20779;-73
2023/05/27 10:00:40;;;;;;;10.27;4.73;;;;;;;19.74;48.04;101983.75;5039938;28;20234;-72
2023/05/27 10:03:08;;;;;;;8.07;4.13;;;;;;;19.87;47.92;101981.78;5048369;28;20199;-73
2023/05/27 10:05:35;;;;;;;7.30;3.90;;;;;;;19.99;46.80;101972.66;5046668;28;20231;-72
2023/05/27 10:08:03;;;;;;;10.17;4.33;;;;;;;20.06;46.97;101970.31;5044238;28;20799;-72
2023/05/27 10:10:30;;;;;;;12.10;4.17;;;;;;;20.15;46.93;101968.69;5047122;28;20632;-73
2023/05/27 10:12:58;;;;;;;9.88;3.55;;;;;;;20.26;46.90;101964.09;5043426;28;20229;-73
2023/05/27 10:15:28;;;;;;;7.55;3.20;;;;;;;20.36;45.85;101964.19;5038479;28;20574;-69
2023/05/27 10:17:56;;;;;;;7.23;3.80;;;;;;;20.42;46.67;101958.31;5038705;28;20981;-69
2023/05/27 10:20:28;;;;;;;7.32;3.63;;;;;;;20.48;45.76;101956.91;5042908;28;20208;-70
2023/05/27 10:22:56;;;;;;;9.40;3.40;;;;;;;20.49;45.62;101940.56;5041354;28;20686;-70
2023/05/27 10:25:23;;;;;;;8.20;3.85;;;;;;;20.52;45.36;101940.31;5047391;28;20228;-72
2023/05/27 10:27:49;;;;;;;8.05;3.22;;;;;;;20.50;45.72;101942.28;5043111;28;20700;-72
2023/05/27 10:30:16;;;;;;;8.10;3.22;;;;;;;20.53;45.28;101944.72;5044633;28;20620;-72
2023/05/27 10:32:48;;;;;;;7.95;3.28;;;;;;;20.57;45.35;101938.06;5043641;28;20593;-70
2023/05/27 10:35:15;;;;;;;6.90;3.33;;;;;;;20.65;44.79;101945.53;5041978;28;20779;-71
2023/05/27 10:37:42;;;;;;;7.93;2.75;;;;;;;20.69;45.02;101933.44;5048666;28;20609;-72
2023/05/27 10:40:09;;;;;;;6.28;2.90;;;;;;;20.77;44.19;101936.38;5042794;28;20205;-74
2023/05/27 10:42:36;;;;;;;8.52;3.60;;;;;;;20.82;43.57;101933.25;5043108;28;20213;-71
2023/05/27 10:45:05;;;;;;;6.20;2.65;;;;;;;20.86;43.15;101926.56;5040859;28;20221;-73
2023/05/27 10:47:35;;;;;;;7.17;2.73;;;;;;;20.85;42.66;101927.56;5040579;28;20211;-72
2023/05/27 10:50:12;;;;;;;8.48;3.20;;;;;;;20.80;41.60;101917.13;5047428;28;20255;-72
2023/05/27 10:52:40;;;;;;;6.93;3.05;;;;;;;20.83;41.92;101916.00;5046152;28;20219;-72
2023/05/27 10:55:07;;;;;;;9.18;3.15;;;;;;;20.90;42.30;101917.19;5044822;28;20225;-73
2023/05/27 10:57:34;;;;;;;7.82;3.35;;;;;;;20.98;42.99;101909.25;5044981;28;20229;-73
2023/05/27 11:00:08;;;;;;;6.43;2.60;;;;;;;21.04;42.50;101906.88;5047381;28;20676;-70
2023/05/27 11:02:35;;;;;;;7.85;3.03;;;;;;;21.14;42.36;101906.91;5045965;28;20252;-72
2023/05/27 11:05:08;;;;;;;7.70;3.10;;;;;;;21.15;41.20;101909.50;5042571;28;20224;-74
2023/05/27 11:07:37;;;;;;;5.57;2.72;;;;;;;21.12;41.42;101908.94;5043126;28;20308;-73
2023/05/27 11:10:05;;;;;;;6.95;2.95;;;;;;;21.13;41.32;101903.38;5040373;28;21267;-70
2023/05/27 11:12:32;;;;;;;9.25;3.10;;;;;;;21.18;41.54;101892.09;5040463;28;20239;-73
2023/05/27 11:14:58;;;;;;;5.18;2.60;;;;;;;21.27;42.05;101901.31;5038915;28;20869;-71
2023/05/27 11:17:25;;;;;;;6.72;2.92;;;;;;;21.30;42.49;101884.78;5045294;28;20213;-73
2023/05/27 11:19:52;;;;;;;8.82;3.05;;;;;;;21.39;42.72;101892.09;5043983;28;20295;-71
2023/05/27 11:22:20;;;;;;;4.88;3.03;;;;;;;21.51;42.55;101887.41;5042272;28;20198;-72
2023/05/27 11:24:58;;;;;;;7.90;2.75;;;;;;;21.59;41.93;101879.47;5047065;28;20221;-72